Time;durP1;ratioP1;P1;durP2;ratioP2;P2;SDS_P1;SDS_P2;PMS_P1;PMS_P2;Temp;Humidity;BMP_temperature;BMP_pressure;BME280_temperature;BME280_humidity;BME280_pressure;Samples;Min_cycle;Max_cycle;Signal;HPM_P1;HPM_P2
2022/12/24 00:01:19;;;;;;;148.52;58.97;;;;;;;;;;6268188;28;20048;-53
2022/12/24 00:04:20;;;;;;;126.20;52.47;;;;;;;;;;6264038;28;20041;-56
2022/12/24 00:07:20;;;;;;;127.53;56.30;;;;;;;;;;6263780;28;20511;-60
2022/12/24 00:10:21;;;;;;;143.32;63.80;;;;;;;;;;6266311;28;20079;-55
2022/12/24 00:13:21;;;;;;;136.60;62.08;;;;;;;;;;6262616;28;20496;-56
2022/12/24 00:16:22;;;;;;;136.70;59.40;;;;;;;;;;6267598;28;20057;-52
2022/12/24 00:19:22;;;;;;;149.50;57.03;;;;;;;;;;6265931;28;20582;-62
2022/12/24 00:22:23;;;;;;;103.68;41.45;;;;;;;;;;6268360;28;20071;-54
2022/12/24 00:25:24;;;;;;;100.35;41.10;;;;;;;;;;6266082;28;20521;-51
2022/12/24 00:28:24;;;;;;;103.82;42.85;;;;;;;;;;6268186;28;20223;-62
2022/12/24 00:31:25;;;;;;;108.43;46.65;;;;;;;;;;6270700;28;20053;-62
2022/12/24 00:34:26;;;;;;;106.85;46.08;;;;;;;;;;6270491;28;20412;-55
2022/12/24 00:37:26;;;;;;;110.50;48.67;;;;;;;;;;6268773;28;20126;-52
2022/12/24 00:40:27;;;;;;;113.75;49.72;;;;;;;;;;6270162;28;20048;-60
2022/12/24 00:43:28;;;;;;;110.57;46.95;;;;;;;;;;6270331;28;20415;-55
2022/12/24 00:46:31;;;;;;;116.33;47.80;;;;;;;;;;6270619;28;20476;-62
2022/12/24 00:49:31;;;;;;;116.70;47.92;;;;;;;;;;6269052;28;20468;-54
2022/12/24 00:52:32;;;;;;;112.30;47.88;;;;;;;;;;6270008;28;20048;-52
2022/12/24 00:55:32;;;;;;;105.78;46.15;;;;;;;;;;6268676;28;20057;-61
2022/12/24 00:58:35;;;;;;;122.63;50.30;;;;;;;;;;6268382;28;20417;-62
2022/12/24 01:01:35;;;;;;;113.30;47.35;;;;;;;;;;6269644;28;20045;-54
2022/12/24 01:07:55;;;;;;;146.18;54.55;;;;;;;;;;6268655;28;20083;-61
2022/12/24 01:10:56;;;;;;;159.73;57.63;;;;;;;;;;6267905;28;20049;-55
2022/12/24 01:13:57;;;;;;;136.35;54.92;;;;;;;;;;6269477;28;20518;-62
2022/12/24 01:16:58;;;;;;;140.65;54.47;;;;;;;;;;6268952;28;20048;-53
2022/12/24 01:19:58;;;;;;;140.70;55.58;;;;;;;;;;6268228;28;20041;-52
2022/12/24 01:22:59;;;;;;;147.13;58.17;;;;;;;;;;6269652;28;20159;-60
2022/12/24 01:26:01;;;;;;;141.80;63.40;;;;;;;;;;6269450;28;20384;-55
2022/12/24 01:29:02;;;;;;;131.95;56.30;;;;;;;;;;6266911;28;20040;-53
2022/12/24 01:32:03;;;;;;;126.40;49.22;;;;;;;;;;6264118;28;20412;-58
2022/12/24 01:35:04;;;;;;;128.15;47.45;;;;;;;;;;6262491;28;20052;-63
2022/12/24 01:38:05;;;;;;;111.22;44.80;;;;;;;;;;6261869;28;20079;-54
2022/12/24 01:44:33;;;;;;;124.88;47.67;;;;;;;;;;6261817;28;20088;-62
2022/12/24 01:47:34;;;;;;;130.20;51.33;;;;;;;;;;6260804;28;20668;-55
2022/12/24 01:50:35;;;;;;;141.90;53.55;;;;;;;;;;6260122;28;20045;-54
2022/12/24 01:53:38;;;;;;;134.23;55.80;;;;;;;;;;6262007;28;20130;-57
2022/12/24 01:56:43;;;;;;;139.32;59.97;;;;;;;;;;6260973;28;20460;-54
2022/12/24 01:59:47;;;;;;;141.35;58.22;;;;;;;;;;6266212;28;20047;-52
2022/12/24 02:02:50;;;;;;;134.57;56.30;;;;;;;;;;6263595;28;20320;-62
2022/12/24 02:05:54;;;;;;;145.02;65.90;;;;;;;;;;6261251;28;20499;-62
2022/12/24 02:08:54;;;;;;;136.75;55.92;;;;;;;;;;6261075;28;20100;-55
2022/12/24 02:11:56;;;;;;;140.82;54.55;;;;;;;;;;6257403;28;20052;-54
2022/12/24 02:14:58;;;;;;;144.88;59.03;;;;;;;;;;6259369;28;20057;-54
2022/12/24 02:18:34;;;;;;;142.25;56.70;;;;;;;;;;6260416;28;20059;-54
2022/12/24 02:21:45;;;;;;;139.07;53.63;;;;;;;;;;6239934;28;20052;-63
2022/12/24 02:25:11;;;;;;;118.93;48.92;;;;;;;;;;6266051;28;20133;-56
2022/12/24 02:28:38;;;;;;;151.05;63.72;;;;;;;;;;6260887;28;20094;-63
2022/12/24 02:31:50;;;;;;;139.50;53.83;;;;;;;;;;6260223;28;20076;-54
2022/12/24 02:35:08;;;;;;;128.90;51.30;;;;;;;;;;6258409;28;20084;-55
2022/12/24 02:38:19;;;;;;;148.65;58.33;;;;;;;;;;6261707;28;20071;-55
2022/12/24 02:41:24;;;;;;;147.88;59.90;;;;;;;;;;6259760;28;20052;-53
2022/12/24 02:44:29;;;;;;;154.73;58.75;;;;;;;;;;6257476;28;20055;-54
2022/12/24 02:47:31;;;;;;;145.80;53.50;;;;;;;;;;6259182;28;20404;-57
2022/12/24 02:50:32;;;;;;;164.13;57.58;;;;;;;;;;6259056;28;20112;-52
2022/12/24 02:53:33;;;;;;;138.07;51.03;;;;;;;;;;6258565;28;20040;-53
2022/12/24 02:56:40;;;;;;;125.85;47.00;;;;;;;;;;6257621;28;20040;-54
2022/12/24 02:59:53;;;;;;;141.52;50.10;;;;;;;;;;6258487;28;20048;-54
2022/12/24 03:03:06;;;;;;;132.18;51.20;;;;;;;;;;6257869;28;20530;-51
2022/12/24 03:06:30;;;;;;;156.50;50.58;;;;;;;;;;6260623;28;20523;-51
2022/12/24 03:09:48;;;;;;;146.25;49.83;;;;;;;;;;6250415;28;20052;-55
2022/12/24 03:12:52;;;;;;;131.10;49.75;;;;;;;;;;6258846;28;20045;-55
2022/12/24 03:15:53;;;;;;;118.22;45.05;;;;;;;;;;6261424;28;20056;-60
2022/12/24 03:18:56;;;;;;;95.28;39.85;;;;;;;;;;6260173;28;20048;-53
2022/12/24 03:22:01;;;;;;;68.07;28.48;;;;;;;;;;6264463;28;20053;-55
2022/12/24 03:25:02;;;;;;;58.28;22.75;;;;;;;;;;6262545;28;20069;-55
2022/12/24 03:28:05;;;;;;;56.38;23.02;;;;;;;;;;6260186;28;20110;-63
2022/12/24 03:31:07;;;;;;;;;;;;;;;;;;6258154;28;20057;-54
2022/12/24 03:34:08;;;;;;;51.40;21.08;;;;;;;;;;6239245;28;20015;-60
2022/12/24 03:37:08;;;;;;;51.85;21.02;;;;;;;;;;6264706;28;20049;-55
2022/12/24 03:40:09;;;;;;;53.13;22.70;;;;;;;;;;6263137;28;20506;-58
2022/12/24 03:43:10;;;;;;;46.80;21.27;;;;;;;;;;6258204;28;20049;-54
2022/12/24 03:46:10;;;;;;;47.60;19.95;;;;;;;;;;6258277;28;20045;-58
2022/12/24 03:49:11;;;;;;;47.15;19.30;;;;;;;;;;6260762;28;20052;-56
2022/12/24 03:52:12;;;;;;;40.05;17.35;;;;;;;;;;6260464;28;20404;-55
2022/12/24 03:55:12;;;;;;;35.45;16.13;;;;;;;;;;6261485;28;20411;-53
2022/12/24 03:58:13;;;;;;;35.83;15.60;;;;;;;;;;6259536;28;20133;-53
2022/12/24 04:01:15;;;;;;;30.10;14.45;;;;;;;;;;6259339;28;20068;-52
2022/12/24 04:04:16;;;;;;;34.95;16.30;;;;;;;;;;6258197;28;20037;-54
2022/12/24 04:07:17;;;;;;;29.05;13.93;;;;;;;;;;6257685;28;20514;-52
2022/12/24 04:10:17;;;;;;;29.02;13.07;;;;;;;;;;6257675;28;20059;-54
2022/12/24 04:13:18;;;;;;;27.85;13.65;;;;;;;;;;6256420;28;20056;-56
2022/12/24 04:16:19;;;;;;;26.35;14.30;;;;;;;;;;6257236;28;20077;-57
2022/12/24 04:19:19;;;;;;;26.20;12.80;;;;;;;;;;6257707;28;20061;-52
2022/12/24 04:22:20;;;;;;;27.42;12.68;;;;;;;;;;6258532;28;20045;-51
2022/12/24 04:25:20;;;;;;;26.42;13.02;;;;;;;;;;6260849;28;20041;-56
2022/12/24 04:28:21;;;;;;;25.75;13.02;;;;;;;;;;6259957;28;20443;-53
2022/12/24 04:31:22;;;;;;;29.00;13.57;;;;;;;;;;6263084;28;20396;-52
2022/12/24 04:34:23;;;;;;;23.58;11.85;;;;;;;;;;6261594;28;20086;-60
2022/12/24 04:37:23;;;;;;;24.92;12.88;;;;;;;;;;6263602;28;20041;-51
2022/12/24 04:40:25;;;;;;;29.92;14.57;;;;;;;;;;6263733;28;20055;-54
2022/12/24 04:43:26;;;;;;;27.17;13.13;;;;;;;;;;6262564;28;20057;-53
2022/12/24 04:46:31;;;;;;;27.73;12.38;;;;;;;;;;6263456;28;20049;-63
2022/12/24 04:49:31;;;;;;;29.42;13.80;;;;;;;;;;6263834;28;20041;-55
2022/12/24 04:52:33;;;;;;;28.90;13.68;;;;;;;;;;6264049;28;20045;-57
2022/12/24 04:55:33;;;;;;;29.27;13.13;;;;;;;;;;6264942;28;20132;-54
2022/12/24 04:58:34;;;;;;;32.13;16.23;;;;;;;;;;6263566;28;20080;-59
2022/12/24 05:01:35;;;;;;;32.17;14.50;;;;;;;;;;6261586;28;20040;-56
2022/12/24 05:04:35;;;;;;;29.50;13.60;;;;;;;;;;6261759;28;20049;-52
2022/12/24 05:07:36;;;;;;;28.83;13.95;;;;;;;;;;6263139;28;20052;-60
2022/12/24 05:10:37;;;;;;;30.88;14.52;;;;;;;;;;6263000;28;20044;-55
2022/12/24 05:13:37;;;;;;;34.10;15.07;;;;;;;;;;6263207;28;20063;-52
2022/12/24 05:16:38;;;;;;;30.38;14.02;;;;;;;;;;6266445;28;20087;-53
2022/12/24 05:19:38;;;;;;;30.10;14.25;;;;;;;;;;6267238;28;20187;-60
2022/12/24 05:29:18;;;;;;;32.22;14.75;;;;;;;;;;6265278;28;20045;-53
2022/12/24 05:32:18;;;;;;;33.25;15.20;;;;;;;;;;6266562;28;20104;-55
2022/12/24 05:35:19;;;;;;;35.00;16.38;;;;;;;;;;6260253;28;20041;-54
2022/12/24 05:38:19;;;;;;;36.55;15.75;;;;;;;;;;6261215;28;20049;-57
2022/12/24 05:41:21;;;;;;;32.47;15.43;;;;;;;;;;6263881;28;20045;-57
2022/12/24 05:44:21;;;;;;;35.50;15.57;;;;;;;;;;6267005;28;20049;-53
2022/12/24 05:47:22;;;;;;;33.85;15.02;;;;;;;;;;6262527;28;20843;-54
2022/12/24 05:50:22;;;;;;;32.72;15.57;;;;;;;;;;6262419;28;20053;-53
2022/12/24 05:53:23;;;;;;;36.53;16.30;;;;;;;;;;6259142;28;20519;-51
2022/12/24 05:56:24;;;;;;;36.03;16.73;;;;;;;;;;6259455;28;20048;-54
2022/12/24 05:59:25;;;;;;;36.87;17.30;;;;;;;;;;6243476;28;20056;-51
2022/12/24 06:02:25;;;;;;;37.15;16.50;;;;;;;;;;6261532;28;20045;-52
2022/12/24 06:05:26;;;;;;;34.97;15.23;;;;;;;;;;6259011;28;20071;-55
2022/12/24 06:08:27;;;;;;;38.85;16.02;;;;;;;;;;6262195;28;20045;-55
2022/12/24 06:11:28;;;;;;;36.17;14.95;;;;;;;;;;6261229;28;20041;-53
2022/12/24 06:14:29;;;;;;;36.35;15.75;;;;;;;;;;6259229;28;20535;-62
2022/12/24 06:17:30;;;;;;;35.58;16.27;;;;;;;;;;6259477;28;20117;-51
2022/12/24 06:20:30;;;;;;;38.05;16.38;;;;;;;;;;6258714;28;20069;-51
2022/12/24 06:23:33;;;;;;;37.15;16.75;;;;;;;;;;6259080;28;20468;-59
2022/12/24 06:26:34;;;;;;;40.00;17.15;;;;;;;;;;6260478;28;20487;-51
2022/12/24 06:29:34;;;;;;;36.38;15.75;;;;;;;;;;6260035;28;20040;-60
2022/12/24 06:32:35;;;;;;;37.85;16.65;;;;;;;;;;6257627;28;20376;-52
2022/12/24 06:35:36;;;;;;;38.75;15.93;;;;;;;;;;6260386;28;20407;-51
2022/12/24 06:38:36;;;;;;;34.08;15.52;;;;;;;;;;6267905;28;20556;-55
2022/12/24 06:41:37;;;;;;;34.78;16.58;;;;;;;;;;6260910;28;20475;-54
2022/12/24 06:44:37;;;;;;;33.22;14.65;;;;;;;;;;6259209;28;20480;-55
2022/12/24 06:47:38;;;;;;;33.95;15.63;;;;;;;;;;6258660;28;20047;-56
2022/12/24 06:50:40;;;;;;;34.67;15.02;;;;;;;;;;6260664;28;20041;-56
2022/12/24 06:53:41;;;;;;;33.85;15.15;;;;;;;;;;6258187;28;20506;-54
2022/12/24 06:56:42;;;;;;;37.60;16.15;;;;;;;;;;6260729;28;20093;-55
2022/12/24 06:59:42;;;;;;;37.00;15.48;;;;;;;;;;6260313;28;20049;-54
2022/12/24 07:02:43;;;;;;;38.17;16.65;;;;;;;;;;6264267;28;20434;-52
2022/12/24 07:05:44;;;;;;;33.65;15.52;;;;;;;;;;6262894;28;20199;-55
2022/12/24 07:08:45;;;;;;;35.65;14.73;;;;;;;;;;6259069;28;20136;-52
2022/12/24 07:11:45;;;;;;;35.92;14.60;;;;;;;;;;6268185;28;20143;-55
2022/12/24 07:14:46;;;;;;;33.67;14.48;;;;;;;;;;6259425;28;20523;-54
2022/12/24 07:17:47;;;;;;;29.98;14.40;;;;;;;;;;6260442;28;20142;-55
2022/12/24 07:20:47;;;;;;;33.55;14.93;;;;;;;;;;6258204;28;20098;-53
2022/12/24 07:23:48;;;;;;;31.42;14.25;;;;;;;;;;6242536;28;20053;-53
2022/12/24 07:26:48;;;;;;;30.30;13.73;;;;;;;;;;6261060;28;20045;-52
2022/12/24 07:29:49;;;;;;;32.40;14.73;;;;;;;;;;6264568;28;20056;-51
2022/12/24 07:32:50;;;;;;;32.65;13.60;;;;;;;;;;6262408;28;20040;-54
2022/12/24 07:36:03;;;;;;;33.77;14.50;;;;;;;;;;6259459;28;20049;-55
2022/12/24 07:39:03;;;;;;;31.80;14.13;;;;;;;;;;6259483;28;20052;-55
2022/12/24 07:42:06;;;;;;;33.75;13.70;;;;;;;;;;6262837;28;20559;-54
2022/12/24 07:45:07;;;;;;;36.83;14.48;;;;;;;;;;6261615;28;20041;-54
2022/12/24 07:48:08;;;;;;;30.92;14.40;;;;;;;;;;6268123;28;20045;-54
2022/12/24 07:51:08;;;;;;;34.10;14.80;;;;;;;;;;6261120;28;20056;-56
2022/12/24 07:54:09;;;;;;;35.88;15.52;;;;;;;;;;6253569;28;20080;-52
2022/12/24 07:57:10;;;;;;;34.22;13.85;;;;;;;;;;6257713;28;20136;-51
2022/12/24 08:00:12;;;;;;;35.85;14.70;;;;;;;;;;6264422;28;20049;-56
2022/12/24 08:03:21;;;;;;;31.17;14.73;;;;;;;;;;6264967;28;20399;-56
2022/12/24 08:06:22;;;;;;;31.15;14.05;;;;;;;;;;6265781;28;20814;-55
2022/12/24 08:09:22;;;;;;;34.65;13.88;;;;;;;;;;6269349;28;20083;-60
2022/12/24 08:12:23;;;;;;;32.92;14.43;;;;;;;;;;6263475;28;20618;-55
2022/12/24 08:15:24;;;;;;;32.40;14.20;;;;;;;;;;6262535;28;20049;-56
2022/12/24 08:18:25;;;;;;;30.52;13.10;;;;;;;;;;6260926;28;20495;-55
2022/12/24 08:21:25;;;;;;;34.25;14.45;;;;;;;;;;6267280;28;20041;-54
2022/12/24 08:24:26;;;;;;;38.90;17.60;;;;;;;;;;6266253;28;20094;-60
2022/12/24 08:27:27;;;;;;;41.05;19.05;;;;;;;;;;6266951;28;20045;-51
2022/12/24 08:30:27;;;;;;;59.38;31.83;;;;;;;;;;6254637;28;20621;-54
2022/12/24 08:33:28;;;;;;;49.03;25.35;;;;;;;;;;6267885;28;20087;-53
2022/12/24 08:36:29;;;;;;;39.83;19.92;;;;;;;;;;6263971;28;20061;-57
2022/12/24 08:39:29;;;;;;;38.55;17.58;;;;;;;;;;6263522;28;20533;-53
2022/12/24 08:42:30;;;;;;;39.80;20.20;;;;;;;;;;6265690;28;20037;-68
2022/12/24 08:45:30;;;;;;;28.92;13.88;;;;;;;;;;6268768;28;20048;-52
2022/12/24 08:48:32;;;;;;;32.30;13.95;;;;;;;;;;6271240;28;20052;-60
2022/12/24 08:51:32;;;;;;;28.50;12.95;;;;;;;;;;6270497;28;20045;-56
2022/12/24 08:54:33;;;;;;;28.25;12.88;;;;;;;;;;6269580;28;20572;-55
2022/12/24 08:57:37;;;;;;;29.95;13.80;;;;;;;;;;6270481;28;20057;-55
2022/12/24 09:00:38;;;;;;;30.25;13.85;;;;;;;;;;6270594;28;20045;-59
2022/12/24 09:03:38;;;;;;;108.22;37.35;;;;;;;;;;6269110;28;20043;-62
2022/12/24 09:06:39;;;;;;;35.22;16.77;;;;;;;;;;6269896;28;20067;-55
2022/12/24 09:09:39;;;;;;;37.03;17.67;;;;;;;;;;6269427;28;20064;-54
2022/12/24 09:12:40;;;;;;;40.60;21.90;;;;;;;;;;6260031;28;20133;-52
2022/12/24 09:15:41;;;;;;;38.03;20.45;;;;;;;;;;6246391;28;20053;-54
2022/12/24 09:18:42;;;;;;;31.90;14.95;;;;;;;;;;6269681;28;20410;-63
2022/12/24 09:21:42;;;;;;;23.90;11.80;;;;;;;;;;6270228;28;20057;-61
2022/12/24 09:24:43;;;;;;;27.48;11.90;;;;;;;;;;6268854;28;20087;-64
2022/12/24 09:27:43;;;;;;;24.83;11.68;;;;;;;;;;6267267;28;20048;-55
2022/12/24 09:30:44;;;;;;;26.67;12.15;;;;;;;;;;6266732;28;20049;-66
2022/12/24 09:33:47;;;;;;;27.80;12.10;;;;;;;;;;6265873;28;20057;-53
2022/12/24 09:36:48;;;;;;;22.85;11.10;;;;;;;;;;6268919;28;20094;-54
2022/12/24 09:39:48;;;;;;;28.98;11.52;;;;;;;;;;6269106;28;20041;-55
2022/12/24 09:42:52;;;;;;;27.60;11.50;;;;;;;;;;6268021;28;20041;-53
2022/12/24 09:45:56;;;;;;;29.65;12.70;;;;;;;;;;6268186;28;20049;-53
2022/12/24 09:49:03;;;;;;;34.30;16.77;;;;;;;;;;6262115;28;20045;-55
2022/12/24 09:52:07;;;;;;;35.65;17.25;;;;;;;;;;6265035;28;20045;-57
2022/12/24 09:55:11;;;;;;;29.15;13.77;;;;;;;;;;6264105;28;20549;-65
2022/12/24 09:58:49;;;;;;;36.40;17.98;;;;;;;;;;6265862;28;20127;-58
2022/12/24 10:01:52;;;;;;;28.55;14.43;;;;;;;;;;6190885;28;21003;-57
2022/12/24 10:04:53;;;;;;;28.42;12.95;;;;;;;;;;6265767;28;20507;-56
2022/12/24 10:08:00;;;;;;;26.27;11.73;;;;;;;;;;6247044;28;20492;-63
2022/12/24 10:11:18;;;;;;;29.45;12.85;;;;;;;;;;6268063;28;20049;-55
2022/12/24 10:14:29;;;;;;;32.42;12.60;;;;;;;;;;6268581;28;20131;-56
2022/12/24 10:17:45;;;;;;;28.90;12.82;;;;;;;;;;6267483;28;20063;-54
2022/12/24 10:21:04;;;;;;;30.88;13.13;;;;;;;;;;6266621;28;20041;-52
2022/12/24 10:24:14;;;;;;;32.67;13.68;;;;;;;;;;6267878;28;20097;-52
2022/12/24 10:27:18;;;;;;;34.38;13.82;;;;;;;;;;6266402;28;20049;-57
2022/12/24 10:30:21;;;;;;;36.15;14.52;;;;;;;;;;6265451;28;20060;-54
2022/12/24 10:33:35;;;;;;;100.85;35.70;;;;;;;;;;6246397;28;20136;-56
2022/12/24 10:36:35;;;;;;;47.38;22.60;;;;;;;;;;6263000;28;20056;-61
2022/12/24 10:39:36;;;;;;;52.92;25.42;;;;;;;;;;6264725;28;20091;-64
2022/12/24 10:42:41;;;;;;;53.53;24.77;;;;;;;;;;6263345;28;20044;-54
2022/12/24 10:45:46;;;;;;;66.00;28.13;;;;;;;;;;6264602;28;20053;-58
2022/12/24 10:48:51;;;;;;;49.53;20.67;;;;;;;;;;6264038;28;20059;-54
2022/12/24 10:51:58;;;;;;;39.72;16.63;;;;;;;;;;6261711;28;20060;-66
2022/12/24 10:55:07;;;;;;;47.28;18.40;;;;;;;;;;6266821;28;20045;-56
2022/12/24 10:58:16;;;;;;;44.80;19.10;;;;;;;;;;6267271;28;20045;-58
2022/12/24 11:01:16;;;;;;;39.08;16.40;;;;;;;;;;6266148;28;20049;-53
2022/12/24 11:04:21;;;;;;;44.00;16.42;;;;;;;;;;6264906;28;20720;-52
2022/12/24 11:07:22;;;;;;;42.33;17.23;;;;;;;;;;6266773;28;20131;-56
2022/12/24 11:10:23;;;;;;;47.67;18.50;;;;;;;;;;6267569;28;20175;-57
2022/12/24 11:13:45;;;;;;;46.00;18.30;;;;;;;;;;6264535;28;20048;-65
2022/12/24 11:16:53;;;;;;;41.58;19.55;;;;;;;;;;6266921;28;20400;-51
2022/12/24 11:19:54;;;;;;;39.30;15.55;;;;;;;;;;6267464;28;20056;-55
2022/12/24 11:22:55;;;;;;;34.28;15.63;;;;;;;;;;6267079;28;20085;-56
2022/12/24 11:25:57;;;;;;;38.28;17.02;;;;;;;;;;6259762;28;20116;-52
2022/12/24 11:29:24;;;;;;;41.67;18.77;;;;;;;;;;6257359;28;20072;-51
2022/12/24 11:32:25;;;;;;;25.75;10.35;;;;;;;;;;6260179;28;20128;-51
2022/12/24 11:35:27;;;;;;;31.15;13.35;;;;;;;;;;6263531;28;20092;-56
2022/12/24 11:38:29;;;;;;;26.40;11.15;;;;;;;;;;6264502;28;20121;-53
2022/12/24 11:41:36;;;;;;;20.75;8.43;;;;;;;;;;6268527;28;20080;-54
2022/12/24 11:44:47;;;;;;;21.02;8.05;;;;;;;;;;6268663;28;20048;-54
2022/12/24 11:47:48;;;;;;;26.33;9.18;;;;;;;;;;6263709;28;20600;-56
2022/12/24 11:50:56;;;;;;;21.60;8.02;;;;;;;;;;6268492;28;20060;-55
2022/12/24 11:54:03;;;;;;;18.73;7.82;;;;;;;;;;6245215;28;20049;-56
2022/12/24 11:57:07;;;;;;;19.83;8.57;;;;;;;;;;6248072;28;20119;-53
2022/12/24 12:00:10;;;;;;;22.15;8.77;;;;;;;;;;6248798;28;20722;-51
2022/12/24 12:03:29;;;;;;;23.90;9.45;;;;;;;;;;6244593;28;20053;-56
2022/12/24 12:06:45;;;;;;;23.30;9.02;;;;;;;;;;6244028;28;20059;-56
2022/12/24 12:10:14;;;;;;;20.70;8.52;;;;;;;;;;6252943;28;20730;-51
2022/12/24 12:13:21;;;;;;;23.02;8.90;;;;;;;;;;6239776;28;20057;-54
2022/12/24 12:16:59;;;;;;;23.40;9.60;;;;;;;;;;6243835;28;20151;-53
2022/12/24 12:20:01;;;;;;;21.50;9.23;;;;;;;;;;6244092;28;20053;-50
2022/12/24 12:23:24;;;;;;;23.48;8.32;;;;;;;;;;6243858;28;20096;-53
2022/12/24 12:26:28;;;;;;;18.23;7.35;;;;;;;;;;6250226;28;20049;-51
2022/12/24 12:29:38;;;;;;;18.88;8.50;;;;;;;;;;6244183;28;20051;-49
2022/12/24 12:33:01;;;;;;;18.23;7.75;;;;;;;;;;6241010;28;20044;-52
2022/12/24 12:36:03;;;;;;;17.85;7.43;;;;;;;;;;6243609;28;20061;-51
2022/12/24 12:39:05;;;;;;;20.33;7.13;;;;;;;;;;6241806;28;20060;-53
2022/12/24 12:42:39;;;;;;;16.25;6.53;;;;;;;;;;6251095;28;20800;-55
2022/12/24 12:46:13;;;;;;;14.73;6.45;;;;;;;;;;6244044;28;20102;-56
2022/12/24 12:49:19;;;;;;;13.23;6.78;;;;;;;;;;6250458;28;20046;-54
2022/12/24 12:52:47;;;;;;;18.70;6.75;;;;;;;;;;6242512;28;20060;-56
2022/12/24 12:56:01;;;;;;;13.85;6.40;;;;;;;;;;6245658;28;20066;-59
2022/12/24 12:59:14;;;;;;;24.60;8.48;;;;;;;;;;6244774;28;20075;-56
2022/12/24 13:02:36;;;;;;;15.02;6.50;;;;;;;;;;6248734;28;20081;-58
2022/12/24 13:05:53;;;;;;;;;;;;;;;;;;6247232;28;20045;-58
